Time;durP1;ratioP1;P1;durP2;ratioP2;P2;SDS_P1;SDS_P2;PMS_P1;PMS_P2;Temp;Humidity;BMP_temperature;BMP_pressure;BME280_temperature;BME280_humidity;BME280_pressure;Samples;Min_cycle;Max_cycle;Signal;HPM_P1;HPM_P2
2022/05/16 05:02:22;;;;;;;10.77;2.85;;;17.40;90.20;;;;;;6086088;23;20258;-81
2022/05/16 05:05:08;;;;;;;5.75;2.58;;;17.40;89.40;;;;;;6142808;23;20361;-81
2022/05/16 05:07:52;;;;;;;5.53;2.95;;;17.50;90.20;;;;;;6142788;23;20205;-82
2022/05/16 05:16:11;;;;;;;6.10;2.50;;;17.60;90.20;;;;;;6164285;23;20084;-80
2022/05/16 05:18:39;;;;;;;4.57;2.60;;;17.70;89.30;;;;;;6139097;23;20186;-80
2022/05/16 05:21:06;;;;;;;7.55;2.78;;;17.80;90.20;;;;;;6139612;23;19994;-80
2022/05/16 05:23:33;;;;;;;6.45;2.10;;;17.90;89.90;;;;;;6138994;23;20005;-80
2022/05/16 05:25:59;;;;;;;4.70;2.10;;;17.90;89.70;;;;;;6165261;23;20033;-80
2022/05/16 05:28:25;;;;;;;6.22;2.47;;;18.00;89.70;;;;;;6164018;23;20005;-79
2022/05/16 05:30:51;;;;;;;5.32;2.40;;;18.10;90.00;;;;;;6143955;23;20299;-80
2022/05/16 05:33:17;;;;;;;4.80;2.42;;;18.10;89.00;;;;;;6164743;23;20020;-82
2022/05/16 05:35:43;;;;;;;4.68;2.33;;;18.00;89.20;;;;;;6164934;23;19993;-81
2022/05/16 05:38:09;;;;;;;6.03;2.70;;;18.00;88.40;;;;;;6139052;23;20065;-80
2022/05/16 05:40:37;;;;;;;4.63;2.60;;;18.00;88.90;;;;;;6164756;23;20179;-80
2022/05/16 05:43:07;;;;;;;5.30;2.88;;;18.00;89.20;;;;;;6165429;23;19994;-81
2022/05/16 05:45:34;;;;;;;5.82;3.20;;;18.10;89.10;;;;;;6138752;23;20190;-81
2022/05/16 05:48:01;;;;;;;7.38;3.63;;;18.20;89.00;;;;;;6165988;23;20005;-81
2022/05/16 05:50:27;;;;;;;9.25;3.60;;;18.20;88.90;;;;;;6167166;23;20199;-80
2022/05/16 05:52:53;;;;;;;5.90;3.35;;;18.30;88.50;;;;;;6165012;23;20016;-80
2022/05/16 05:55:19;;;;;;;8.77;3.10;;;18.30;87.80;;;;;;6164701;23;20009;-81
2022/05/16 05:57:45;;;;;;;10.93;4.60;;;18.40;87.80;;;;;;6139176;23;20012;-82
2022/05/16 06:00:11;;;;;;;11.88;4.78;;;18.40;87.10;;;;;;6165464;23;19985;-81
2022/05/16 06:02:40;;;;;;;11.73;5.30;;;18.60;86.40;;;;;;6195035;23;20306;-80
2022/05/16 06:05:19;;;;;;;12.38;4.55;;;18.70;85.40;;;;;;6196605;23;20310;-81
2022/05/16 06:07:44;;;;;;;11.60;4.68;;;18.80;85.90;;;;;;6194786;23;20005;-80
2022/05/16 06:10:15;;;;;;;8.98;4.50;;;18.90;85.60;;;;;;6169044;23;20033;-82
2022/05/16 06:12:40;;;;;;;7.57;3.58;;;19.00;84.70;;;;;;6168050;23;20020;-80
2022/05/16 06:15:09;;;;;;;7.85;3.42;;;19.10;84.70;;;;;;6167948;23;20005;-80
2022/05/16 06:17:37;;;;;;;7.72;2.75;;;19.10;85.30;;;;;;6103352;23;20086;-81
2022/05/16 06:20:04;;;;;;;6.15;2.60;;;19.00;86.10;;;;;;6103939;23;20006;-81
2022/05/16 06:22:34;;;;;;;5.78;2.67;;;19.10;86.20;;;;;;6103097;23;20010;-81
2022/05/16 06:27:52;;;;;;;6.30;2.25;;;19.10;85.00;;;;;;6103689;23;20058;-80
2022/05/16 06:30:20;;;;;;;5.20;2.70;;;19.20;84.00;;;;;;6103360;23;20029;-80
2022/05/16 06:32:47;;;;;;;4.90;2.60;;;19.20;84.10;;;;;;6080623;23;20010;-82
2022/05/16 06:35:15;;;;;;;6.85;2.40;;;19.20;83.70;;;;;;6104124;23;20554;-83
2022/05/16 06:37:41;;;;;;;11.00;2.85;;;19.20;83.90;;;;;;6103821;23;20374;-82
2022/05/16 06:40:08;;;;;;;8.00;2.90;;;19.30;84.20;;;;;;6104424;23;20010;-81
2022/05/16 06:42:34;;;;;;;8.88;3.17;;;19.40;84.30;;;;;;6103610;23;20014;-80
2022/05/16 06:45:00;;;;;;;9.65;3.10;;;19.50;84.50;;;;;;6080340;23;20099;-80
2022/05/16 06:47:26;;;;;;;9.38;3.80;;;19.60;84.50;;;;;;6103867;23;20035;-80
2022/05/16 06:49:52;;;;;;;7.90;2.92;;;19.80;83.90;;;;;;6056694;23;20013;-80
2022/05/16 06:52:18;;;;;;;8.23;3.30;;;20.10;82.90;;;;;;6105807;23;20055;-79
2022/05/16 06:54:44;;;;;;;8.50;3.33;;;20.40;82.40;;;;;;6091892;23;20013;-80
2022/05/16 06:57:11;;;;;;;7.47;3.05;;;20.70;81.70;;;;;;6195858;23;20037;-81
2022/05/16 06:59:37;;;;;;;7.15;3.10;;;20.90;80.90;;;;;;6145594;23;20009;-80
2022/05/16 07:02:06;;;;;;;6.38;2.50;;;21.20;80.60;;;;;;6169400;23;20017;-81
2022/05/16 07:04:34;;;;;;;5.72;2.20;;;21.40;80.00;;;;;;6169441;23;20009;-79
2022/05/16 07:07:00;;;;;;;6.93;2.60;;;21.80;79.00;;;;;;6193803;23;20001;-78
2022/05/16 07:09:26;;;;;;;5.82;2.50;;;22.10;77.60;;;;;;6194241;23;20044;-79
2022/05/16 07:11:52;;;;;;;6.20;2.53;;;22.60;77.40;;;;;;6168634;23;20009;-80
2022/05/16 07:14:17;;;;;;;8.20;2.70;;;22.90;76.40;;;;;;6194609;23;20009;-79
2022/05/16 07:16:43;;;;;;;6.43;2.60;;;23.10;75.70;;;;;;6167183;23;20067;-80
2022/05/16 07:19:09;;;;;;;8.32;2.70;;;23.00;75.30;;;;;;6194379;23;20027;-77
2022/05/16 07:21:35;;;;;;;5.22;3.00;;;23.20;75.10;;;;;;6167932;23;20303;-78
2022/05/16 07:24:01;;;;;;;5.38;2.50;;;23.40;74.90;;;;;;6145125;23;20005;-77
2022/05/16 07:29:11;;;;;;;4.93;3.03;;;24.00;72.50;;;;;;6198832;23;20001;-79
2022/05/16 07:31:37;;;;;;;7.20;3.20;;;24.30;72.30;;;;;;6196028;23;20363;-80
2022/05/16 07:34:03;;;;;;;7.30;3.05;;;24.40;71.80;;;;;;6194758;23;20012;-78
2022/05/16 07:36:29;;;;;;;6.75;2.67;;;24.30;72.00;;;;;;6194364;23;20196;-78
2022/05/16 07:38:55;;;;;;;6.30;2.65;;;24.20;72.20;;;;;;6194075;23;20008;-79
2022/05/16 07:41:21;;;;;;;8.20;2.80;;;24.10;72.90;;;;;;6194467;23;20044;-79
2022/05/16 07:43:46;;;;;;;6.72;3.20;;;24.10;73.10;;;;;;6193738;23;20283;-77
2022/05/16 07:46:12;;;;;;;7.22;2.83;;;24.00;73.50;;;;;;6166707;23;20013;-80
2022/05/16 07:48:38;;;;;;;8.05;3.03;;;23.90;73.80;;;;;;6193430;23;20244;-78
2022/05/16 07:51:04;;;;;;;8.35;2.90;;;23.70;74.40;;;;;;6168197;23;20056;-79
2022/05/16 07:53:30;;;;;;;7.43;3.13;;;23.80;74.90;;;;;;6193540;23;20005;-78
2022/05/16 07:55:57;;;;;;;6.28;2.53;;;23.90;74.20;;;;;;6193735;23;20044;-79
2022/05/16 07:58:25;;;;;;;6.35;2.33;;;23.80;74.70;;;;;;6194077;23;20271;-78
2022/05/16 08:00:52;;;;;;;6.25;2.97;;;23.80;75.00;;;;;;6142341;23;20025;-80
2022/05/16 08:03:20;;;;;;;4.75;2.65;;;23.90;75.30;;;;;;6193751;23;20013;-79
2022/05/16 08:05:47;;;;;;;6.18;2.13;;;23.70;76.40;;;;;;6193224;23;20210;-78
2022/05/16 08:11:00;;;;;;;6.22;2.40;;;23.30;80.80;;;;;;6194080;23;20012;-80
2022/05/16 08:13:26;;;;;;;7.82;3.03;;;23.00;83.80;;;;;;6142975;23;20005;-79
2022/05/16 08:15:53;;;;;;;4.97;2.53;;;22.80;83.90;;;;;;6193285;23;20202;-80
2022/05/16 08:18:19;;;;;;;6.28;3.15;;;22.60;84.70;;;;;;6194078;23;20007;-79
2022/05/16 08:20:47;;;;;;;8.57;3.40;;;22.40;85.10;;;;;;6166974;23;20005;-80
2022/05/16 08:23:18;;;;;;;8.18;3.20;;;22.40;84.60;;;;;;6193530;23;20047;-78
2022/05/16 08:25:45;;;;;;;4.78;2.88;;;22.30;85.10;;;;;;6193282;23;20005;-79
2022/05/16 08:28:12;;;;;;;4.32;2.30;;;22.40;84.40;;;;;;6193425;23;20008;-79
2022/05/16 08:30:38;;;;;;;6.10;2.50;;;22.40;85.00;;;;;;6166187;23;20013;-79
2022/05/16 08:33:04;;;;;;;4.75;2.63;;;22.50;84.50;;;;;;6167322;23;20052;-80
2022/05/16 08:35:30;;;;;;;5.15;2.65;;;22.80;84.40;;;;;;6166980;23;20379;-79
2022/05/16 08:40:47;;;;;;;8.38;3.63;;;23.50;82.20;;;;;;6194199;23;20057;-80
2022/05/16 08:43:36;;;;;;;7.05;2.63;;;23.60;82.10;;;;;;6194458;23;20007;-80
2022/05/16 08:46:12;;;;;;;6.50;2.70;;;23.70;81.80;;;;;;6141790;23;20035;-79
2022/05/16 08:48:44;;;;;;;8.60;2.90;;;23.90;81.40;;;;;;6193264;23;20016;-79
2022/05/16 08:51:21;;;;;;;4.40;2.60;;;24.20;81.60;;;;;;6167369;23;20005;-79
2022/05/16 08:54:17;;;;;;;8.50;3.38;;;24.20;80.70;;;;;;6166893;23;20012;-79
2022/05/16 08:56:46;;;;;;;6.13;3.08;;;24.50;80.60;;;;;;6167003;23;19997;-79
2022/05/16 08:59:23;;;;;;;;;;;24.80;76.40;;;;;;6167911;23;19997;-78
2022/05/16 09:02:04;;;;;;;8.67;3.87;;;25.00;75.60;;;;;;6190297;23;19916;-78
2022/05/16 09:04:46;;;;;;;5.63;3.00;;;25.30;73.10;;;;;;6141773;23;20424;-80
2022/05/16 09:07:17;;;;;;;6.85;3.17;;;25.80;73.10;;;;;;6167463;23;20004;-79
2022/05/16 09:10:12;;;;;;;4.85;3.05;;;26.50;71.10;;;;;;6193267;23;20008;-80
2022/05/16 09:12:47;;;;;;;7.03;3.65;;;27.00;70.60;;;;;;6193503;23;20016;-79
2022/05/16 09:15:40;;;;;;;8.77;3.72;;;26.80;70.30;;;;;;6166666;23;20005;-78
2022/05/16 09:18:34;;;;;;;8.90;3.80;;;26.90;69.80;;;;;;6193680;23;20259;-77
2022/05/16 09:21:08;;;;;;;6.07;3.40;;;26.80;69.40;;;;;;6160121;23;20370;-81
2022/05/16 09:23:50;;;;;;;6.03;3.08;;;26.90;68.90;;;;;;6167445;23;20072;-80
2022/05/16 09:26:56;;;;;;;6.78;3.65;;;27.00;68.40;;;;;;6142490;23;20105;-79
2022/05/16 09:29:32;;;;;;;5.20;2.80;;;27.60;67.30;;;;;;6194391;23;20076;-79
2022/05/16 09:32:36;;;;;;;6.15;3.10;;;27.90;65.70;;;;;;6193106;23;20020;-79
2022/05/16 09:35:04;;;;;;;6.55;3.10;;;28.30;65.00;;;;;;6162091;23;20005;-79
2022/05/16 09:37:31;;;;;;;7.45;3.20;;;28.70;63.40;;;;;;6192810;23;20004;-79
2022/05/16 09:39:57;;;;;;;5.55;2.35;;;28.70;62.20;;;;;;6168197;23;20295;-79
2022/05/16 09:42:33;;;;;;;8.32;3.10;;;28.50;62.40;;;;;;6171861;23;20024;-78
2022/05/16 09:45:19;;;;;;;5.65;2.80;;;28.30;62.70;;;;;;6173165;23;20013;-78
2022/05/16 09:47:45;;;;;;;5.28;2.97;;;28.30;62.90;;;;;;6194252;23;20064;-78
2022/05/16 09:50:20;;;;;;;6.80;3.08;;;28.00;64.50;;;;;;6193631;23;20012;-78
2022/05/16 09:53:09;;;;;;;7.40;3.67;;;27.90;63.60;;;;;;6167420;23;20047;-79
2022/05/16 09:56:09;;;;;;;5.10;3.08;;;27.80;63.60;;;;;;6044390;23;20003;-77
2022/05/16 09:59:38;;;;;;;5.45;3.05;;;27.70;63.00;;;;;;6008693;23;20047;-79
2022/05/16 10:02:18;;;;;;;5.93;3.13;;;27.40;63.50;;;;;;6050367;23;20026;-78
2022/05/16 10:04:52;;;;;;;6.35;3.40;;;27.50;63.70;;;;;;6048969;23;20297;-78
2022/05/16 10:07:47;;;;;;;7.68;3.10;;;27.70;64.00;;;;;;6048734;23;20007;-79
2022/05/16 10:10:28;;;;;;;5.50;2.53;;;28.00;62.50;;;;;;6048949;23;20316;-80
2022/05/16 10:13:12;;;;;;;7.28;3.40;;;28.50;62.80;;;;;;6048136;23;20400;-79
2022/05/16 10:15:50;;;;;;;8.88;3.47;;;28.60;62.30;;;;;;6025449;23;20033;-77
2022/05/16 10:18:19;;;;;;;7.28;3.33;;;28.80;61.80;;;;;;6027583;23;20003;-78
2022/05/16 10:24:12;;;;;;;6.07;3.17;;;28.50;61.70;;;;;;6049248;23;20248;-77
2022/05/16 10:27:06;;;;;;;7.35;3.10;;;28.50;62.00;;;;;;6024645;23;20002;-79
2022/05/16 10:29:36;;;;;;;5.25;3.00;;;28.80;61.90;;;;;;6048943;23;20010;-79
2022/05/16 10:35:02;;;;;;;8.48;3.70;;;28.50;62.10;;;;;;6221404;23;20312;-78
2022/05/16 10:37:32;;;;;;;5.55;2.75;;;28.40;62.90;;;;;;6171024;23;20052;-80
2022/05/16 10:40:15;;;;;;;10.93;3.58;;;28.40;62.50;;;;;;6170086;23;20022;-80
2022/05/16 10:42:50;;;;;;;6.82;3.40;;;28.00;63.40;;;;;;6195039;23;20027;-80
2022/05/16 10:45:23;;;;;;;7.35;3.28;;;27.70;64.50;;;;;;6194911;23;20103;-79
2022/05/16 10:48:14;;;;;;;7.20;3.35;;;27.30;65.70;;;;;;6221588;23;20016;-80
2022/05/16 10:51:08;;;;;;;6.97;3.10;;;27.20;66.70;;;;;;6196847;23;20001;-80
2022/05/16 10:54:05;;;;;;;6.47;3.45;;;27.10;67.00;;;;;;6197590;23;20030;-80
2022/05/16 10:56:55;;;;;;;7.18;3.20;;;27.00;67.00;;;;;;6141366;23;20046;-78
2022/05/16 10:59:21;;;;;;;5.10;2.70;;;26.80;66.90;;;;;;6197170;23;20001;-81
2022/05/16 11:02:03;;;;;;;6.57;2.65;;;26.90;66.10;;;;;;6222192;23;20306;-79
2022/05/16 11:04:51;;;;;;;7.80;3.35;;;26.80;65.30;;;;;;6222416;23;20023;-79
2022/05/16 11:07:31;;;;;;;6.68;2.42;;;26.70;65.90;;;;;;6223846;23;19996;-78
2022/05/16 11:10:09;;;;;;;5.03;2.05;;;26.60;66.00;;;;;;6196400;23;20147;-78
2022/05/16 11:12:49;;;;;;;7.40;2.10;;;26.40;66.50;;;;;;6171890;23;20004;-80
2022/05/16 11:15:32;;;;;;;7.25;3.03;;;26.40;66.60;;;;;;6196671;23;20000;-79
2022/05/16 11:18:37;;;;;;;5.55;2.05;;;26.40;66.90;;;;;;6171612;23;20020;-80
2022/05/16 11:21:59;;;;;;;6.75;2.22;;;26.30;66.80;;;;;;6202419;23;20016;-78
2022/05/16 11:25:04;;;;;;;8.02;2.03;;;25.90;68.10;;;;;;6171574;23;20338;-77
2022/05/16 11:28:03;;;;;;;7.47;2.58;;;25.30;70.00;;;;;;6196538;23;20190;-78
2022/05/16 11:30:35;;;;;;;8.43;2.70;;;24.70;71.50;;;;;;6222198;23;20012;-78
2022/05/16 12:33:29;;;;;;;3.90;1.35;;;19.50;93.40;;;;;;6121425;23;20045;-80
2022/05/16 12:36:23;;;;;;;7.15;2.10;;;19.10;95.90;;;;;;6111641;23;20271;-82
2022/05/16 12:38:56;;;;;;;4.90;1.33;;;18.90;96.10;;;;;;6162319;23;20005;-80
2022/05/16 12:42:19;;;;;;;5.57;1.67;;;18.90;97.20;;;;;;6136817;23;20287;-82
2022/05/16 12:44:54;;;;;;;4.25;1.67;;;18.80;99.20;;;;;;6162383;23;20021;-80
2022/05/16 12:47:34;;;;;;;4.07;1.40;;;18.90;98.50;;;;;;6162343;23;20120;-81
2022/05/16 12:50:42;;;;;;;5.50;1.55;;;18.90;99.60;;;;;;6160442;23;20238;-80
2022/05/16 12:53:27;;;;;;;;;;;19.10;98.70;;;;;;6161849;23;20370;-80
2022/05/16 12:56:26;;;;;;;5.88;1.80;;;19.10;99.90;;;;;;6162694;23;19908;-82
2022/05/16 12:59:23;;;;;;;4.25;1.50;;;19.20;99.90;;;;;;6162392;23;20001;-80
2022/05/16 13:02:22;;;;;;;5.85;1.73;;;19.50;99.90;;;;;;6160457;23;20072;-81
2022/05/16 13:05:07;;;;;;;7.47;2.25;;;19.80;99.20;;;;;;6136593;23;20029;-81
2022/05/16 13:07:39;;;;;;;4.32;1.45;;;20.10;99.40;;;;;;6163499;23;20021;-83
2022/05/16 13:10:06;;;;;;;6.97;2.00;;;20.70;98.00;;;;;;6146157;23;20033;-83
2022/05/16 13:13:09;;;;;;;4.70;2.08;;;21.50;96.80;;;;;;6112488;23;20203;-80
2022/05/16 13:15:43;;;;;;;5.60;1.77;;;22.70;93.80;;;;;;6111512;23;20006;-84
2022/05/16 13:18:24;;;;;;;3.83;1.17;;;24.30;90.20;;;;;;6112595;23;20342;-82
2022/05/16 13:21:20;;;;;;;4.47;1.48;;;26.00;84.40;;;;;;6136133;23;20002;-82
2022/05/16 13:23:47;;;;;;;4.82;1.20;;;28.10;76.20;;;;;;6135844;23;20012;-78
2022/05/16 13:31:54;;;;;;;4.05;1.30;;;28.40;71.80;;;;;;6134988;23;20017;-82
2022/05/16 13:34:40;;;;;;;;;;;28.40;73.00;;;;;;6163069;23;20020;-82
2022/05/16 13:37:07;;;;;;;3.83;1.17;;;29.00;70.90;;;;;;6151071;23;19900;-81
2022/05/16 13:39:41;;;;;;;3.70;1.10;;;28.70;68.40;;;;;;6162630;23;20040;-80
2022/05/16 13:42:07;;;;;;;3.42;1.38;;;28.60;68.20;;;;;;6136492;23;20025;-81
2022/05/16 13:44:58;;;;;;;3.92;1.10;;;28.30;68.90;;;;;;6136682;23;20092;-81
2022/05/16 13:47:27;;;;;;;4.13;1.30;;;27.40;70.80;;;;;;6162031;23;20021;-81
2022/05/16 13:49:53;;;;;;;3.33;1.35;;;27.60;71.60;;;;;;6135696;23;20016;-83
2022/05/16 13:52:33;;;;;;;6.15;1.33;;;27.70;72.30;;;;;;6163342;23;19998;-80
2022/05/16 13:55:08;;;;;;;3.88;1.60;;;28.30;70.70;;;;;;6162578;23;20009;-79
2022/05/16 13:57:35;;;;;;;5.70;1.48;;;30.00;68.20;;;;;;6162221;23;20013;-79
2022/05/16 14:00:29;;;;;;;10.38;2.92;;;31.80;64.10;;;;;;6135836;23;20350;-81
2022/05/16 14:03:26;;;;;;;5.10;1.75;;;33.50;63.50;;;;;;6101864;23;20073;-81
2022/05/16 14:05:55;;;;;;;8.20;3.60;;;35.20;59.00;;;;;;6147812;23;20171;-79
2022/05/16 14:08:45;;;;;;;16.15;10.02;;;36.60;58.30;;;;;;6162039;23;20199;-79
2022/05/16 14:11:34;;;;;;;4.15;1.67;;;40.50;71.60;;;;;;6162379;23;20235;-80
2022/05/16 14:14:21;;;;;;;4.00;1.45;;;39.80;54.30;;;;;;6136488;23;20006;-79
2022/05/16 14:17:02;;;;;;;5.20;1.77;;;41.70;50.60;;;;;;6138579;23;20328;-79
2022/05/16 14:19:46;;;;;;;4.07;1.70;;;40.60;50.30;;;;;;6136900;23;20009;-79
2022/05/16 14:22:25;;;;;;;6.38;3.30;;;37.40;53.60;;;;;;6162441;23;20057;-79
2022/05/16 14:24:59;;;;;;;4.38;1.80;;;38.10;53.60;;;;;;6163865;23;20194;-79
2022/05/16 14:27:37;;;;;;;3.45;1.17;;;39.70;52.00;;;;;;6164442;23;20024;-79
2022/05/16 14:30:18;;;;;;;4.68;1.50;;;38.90;51.10;;;;;;6163544;23;20005;-80
2022/05/16 14:33:10;;;;;;;5.07;2.03;;;39.70;50.70;;;;;;6138500;23;20013;-79
2022/05/16 14:35:37;;;;;;;3.75;1.48;;;39.80;51.80;;;;;;6139438;23;20048;-79
2022/05/16 14:38:11;;;;;;;5.63;2.50;;;41.10;50.00;;;;;;6139704;23;20354;-78
2022/05/16 14:40:49;;;;;;;4.15;1.40;;;41.10;51.00;;;;;;6140171;23;20005;-79
2022/05/16 14:43:37;;;;;;;4.18;1.27;;;42.30;49.40;;;;;;6139973;23;20005;-78
2022/05/16 14:49:00;;;;;;;3.77;1.80;;;40.90;49.30;;;;;;6164269;23;20199;-79
2022/05/16 14:51:28;;;;;;;4.45;1.52;;;39.50;50.10;;;;;;6164926;23;20610;-79
2022/05/16 14:53:55;;;;;;;3.92;1.42;;;37.90;52.00;;;;;;6133526;23;20006;-78
2022/05/16 14:56:22;;;;;;;3.03;1.33;;;38.70;53.20;;;;;;6132551;23;20295;-78
2022/05/16 14:58:50;;;;;;;4.55;1.52;;;40.00;51.30;;;;;;6138715;23;20005;-78
2022/05/16 15:04:03;;;;;;;3.47;1.30;;;40.80;50.50;;;;;;6164516;23;20006;-78
2022/05/16 15:06:31;;;;;;;4.57;1.80;;;39.80;51.80;;;;;;6165285;23;20006;-78
2022/05/16 15:08:59;;;;;;;4.95;1.40;;;38.80;53.10;;;;;;6164430;23;20006;-78
2022/05/16 15:11:27;;;;;;;;;;;37.40;53.60;;;;;;6139494;23;20342;-80
2022/05/16 15:13:53;;;;;;;3.75;1.55;;;37.10;55.00;;;;;;6138454;23;19945;-78
2022/05/16 15:16:20;;;;;;;5.63;1.52;;;37.80;53.30;;;;;;6164368;23;20219;-80
2022/05/16 15:18:47;;;;;;;4.38;1.60;;;37.70;53.80;;;;;;6138234;23;20005;-80
2022/05/16 15:21:14;;;;;;;4.65;1.67;;;37.30;54.80;;;;;;6139185;23;20002;-80
2022/05/16 15:23:40;;;;;;;4.97;1.80;;;36.60;54.90;;;;;;6164577;23;20101;-81
2022/05/16 15:26:07;;;;;;;3.17;1.50;;;35.30;57.00;;;;;;6164651;23;20001;-79
2022/05/16 15:28:35;;;;;;;3.60;1.45;;;35.60;57.60;;;;;;6163492;23;20005;-80
2022/05/16 15:31:02;;;;;;;5.65;1.52;;;37.80;54.50;;;;;;6163318;23;20039;-78
2022/05/16 15:33:28;;;;;;;4.13;1.65;;;37.30;54.20;;;;;;6164713;23;20051;-78
2022/05/16 15:35:55;;;;;;;4.07;1.40;;;36.90;53.60;;;;;;6162719;23;20358;-78
2022/05/16 15:38:22;;;;;;;4.53;1.60;;;35.90;54.80;;;;;;6139190;23;20017;-78
2022/05/16 15:40:49;;;;;;;6.50;1.80;;;34.90;56.80;;;;;;6163820;23;20167;-79
2022/05/16 15:43:18;;;;;;;6.13;1.52;;;33.40;59.00;;;;;;6139230;23;20056;-78
2022/05/16 15:45:46;;;;;;;4.43;1.80;;;32.00;61.60;;;;;;6163460;23;20017;-78
2022/05/16 15:48:14;;;;;;;4.88;1.80;;;31.00;63.20;;;;;;6163107;23;20005;-79
2022/05/16 15:50:41;;;;;;;4.68;2.00;;;30.70;65.30;;;;;;6138433;23;20010;-78
2022/05/16 15:53:09;;;;;;;5.53;1.20;;;31.70;61.80;;;;;;6138786;23;20060;-79
2022/05/16 15:55:36;;;;;;;3.45;1.20;;;32.40;60.60;;;;;;6138558;23;20009;-79
2022/05/16 15:58:05;;;;;;;4.35;1.52;;;33.60;58.30;;;;;;6132176;23;20210;-80
2022/05/16 16:00:31;;;;;;;5.30;1.80;;;34.60;56.90;;;;;;6132373;23;20070;-79
2022/05/16 16:08:37;;;;;;;4.88;1.30;;;34.50;56.80;;;;;;6132386;23;20002;-80
2022/05/16 16:08:42;;;;;;;4.13;1.70;;;33.50;57.20;;;;;;6132772;23;20030;-80
2022/05/16 16:11:12;;;;;;;3.95;1.35;;;34.60;56.60;;;;;;6133007;23;20044;-79
2022/05/16 16:13:38;;;;;;;2.67;1.00;;;36.50;54.90;;;;;;6133843;23;20014;-79
2022/05/16 16:16:10;;;;;;;4.82;1.35;;;36.40;53.30;;;;;;6131460;23;20025;-79
2022/05/16 16:18:37;;;;;;;4.80;1.35;;;36.50;52.40;;;;;;6133205;23;20366;-79
2022/05/16 16:21:17;;;;;;;3.03;1.02;;;35.60;53.50;;;;;;6132803;23;20265;-79
2022/05/16 16:23:55;;;;;;;6.53;1.35;;;36.00;52.80;;;;;;6133217;23;20010;-81
2022/05/16 16:26:24;;;;;;;4.03;1.48;;;36.20;52.70;;;;;;6132794;23;20192;-79
2022/05/16 16:28:50;;;;;;;3.85;1.35;;;35.40;52.70;;;;;;6145452;23;20018;-79
2022/05/16 16:31:28;;;;;;;3.35;1.70;;;35.50;53.00;;;;;;6137665;23;20111;-79
2022/05/16 16:33:58;;;;;;;12.98;10.68;;;35.60;53.10;;;;;;6111054;23;20024;-81
2022/05/16 16:36:27;;;;;;;4.70;2.22;;;35.80;52.80;;;;;;6108645;23;20009;-79
2022/05/16 16:38:52;;;;;;;7.90;4.10;;;34.80;52.80;;;;;;6162114;23;20001;-76
2022/05/16 16:41:21;;;;;;;4.20;1.30;;;33.70;54.30;;;;;;6136961;23;20032;-77
2022/05/16 16:43:51;;;;;;;5.40;2.75;;;32.40;55.50;;;;;;6136793;23;20001;-77
2022/05/16 16:46:23;;;;;;;4.70;1.95;;;31.30;57.60;;;;;;6110830;23;20033;-78
2022/05/16 16:48:53;;;;;;;7.22;4.07;;;30.10;58.90;;;;;;6136724;23;20002;-78
2022/05/16 16:59:42;;;;;;;4.43;1.70;;;26.40;67.40;;;;;;6137106;23;20013;-77
2022/05/16 17:02:21;;;;;;;19.40;12.20;;;26.00;67.70;;;;;;6135719;23;20025;-80
2022/05/16 17:04:49;;;;;;;21.95;16.23;;;26.20;68.10;;;;;;6162199;23;20011;-79
2022/05/16 17:07:16;;;;;;;23.27;14.27;;;25.80;68.40;;;;;;6162581;23;20241;-79
2022/05/16 17:09:43;;;;;;;7.50;2.97;;;25.80;70.50;;;;;;6162906;23;20005;-78
2022/05/16 17:12:10;;;;;;;3.58;1.70;;;25.60;69.10;;;;;;6111714;23;20088;-78
2022/05/16 17:14:37;;;;;;;3.97;1.20;;;25.60;68.50;;;;;;6136162;23;20013;-78
2022/05/16 17:17:10;;;;;;;3.47;1.20;;;26.10;68.20;;;;;;6160088;23;20020;-79
2022/05/16 17:19:35;;;;;;;4.63;1.45;;;26.30;67.30;;;;;;6137676;23;20028;-79
2022/05/16 17:22:02;;;;;;;4.32;1.20;;;26.60;66.50;;;;;;6113494;23;20010;-79
2022/05/16 17:24:29;;;;;;;3.20;1.20;;;26.30;66.90;;;;;;6162454;23;20044;-83
2022/05/16 17:26:56;;;;;;;4.78;1.38;;;26.40;66.50;;;;;;6112515;23;20006;-80
2022/05/16 17:29:22;;;;;;;2.65;0.85;;;27.00;65.00;;;;;;6136307;23;20177;-78
2022/05/16 17:31:54;;;;;;;3.15;0.90;;;28.20;62.90;;;;;;6162096;23;20021;-78
2022/05/16 17:34:22;;;;;;;2.40;1.00;;;28.90;62.30;;;;;;6130566;23;20052;-83
2022/05/16 17:36:53;;;;;;;4.32;1.00;;;29.70;60.00;;;;;;6130278;23;20005;-80
2022/05/16 17:39:23;;;;;;;2.28;0.93;;;30.00;59.60;;;;;;6082446;23;20009;-80
2022/05/16 17:41:51;;;;;;;3.83;1.30;;;29.80;59.20;;;;;;6106243;23;19997;-81
2022/05/16 17:44:20;;;;;;;3.83;0.93;;;30.40;58.10;;;;;;6130940;23;20026;-81
2022/05/16 17:46:56;;;;;;;2.92;1.15;;;29.70;58.60;;;;;;6107328;23;20022;-78
2022/05/16 17:49:22;;;;;;;2.33;1.02;;;28.80;59.70;;;;;;6106008;23;20010;-81
2022/05/16 17:52:11;;;;;;;3.95;1.30;;;28.40;61.00;;;;;;6131224;23;20022;-79
2022/05/16 17:57:41;;;;;;;3.78;0.98;;;26.90;63.70;;;;;;6136575;23;20006;-78
2022/05/16 18:00:08;;;;;;;3.53;1.08;;;26.30;65.00;;;;;;6137408;23;20005;-80
2022/05/16 18:02:40;;;;;;;6.40;1.10;;;26.80;64.50;;;;;;6117982;23;20034;-78
2022/05/16 18:05:09;;;;;;;5.07;1.27;;;27.10;63.90;;;;;;6103594;23;20018;-80
2022/05/16 18:07:44;;;;;;;2.72;1.08;;;26.30;65.10;;;;;;6102838;23;20006;-80
2022/05/16 18:10:13;;;;;;;3.28;1.30;;;25.70;66.00;;;;;;6077115;23;20105;-78
2022/05/16 18:12:42;;;;;;;3.08;1.38;;;25.00;67.70;;;;;;6056478;23;20005;-79
2022/05/16 18:15:21;;;;;;;4.30;1.20;;;24.50;69.40;;;;;;6075108;23;20003;-80
2022/05/16 18:17:48;;;;;;;3.00;1.02;;;23.80;70.90;;;;;;6073237;23;20002;-79
2022/05/16 18:20:17;;;;;;;4.15;1.30;;;23.40;72.00;;;;;;6071784;23;20277;-81
2022/05/16 18:22:50;;;;;;;4.10;1.20;;;23.00;73.20;;;;;;6071698;23;20018;-80
2022/05/16 18:25:21;;;;;;;3.65;1.33;;;22.80;73.80;;;;;;6071753;23;20017;-79
2022/05/16 18:27:47;;;;;;;3.05;1.02;;;22.60;74.20;;;;;;6072622;23;20313;-79
2022/05/16 18:30:30;;;;;;;4.55;1.40;;;22.40;74.70;;;;;;6023621;23;20208;-78
2022/05/16 18:32:57;;;;;;;3.70;1.48;;;22.30;75.60;;;;;;6072120;23;20011;-79
2022/05/16 18:35:25;;;;;;;3.88;1.48;;;22.20;76.20;;;;;;6072408;23;20011;-80
2022/05/16 18:37:54;;;;;;;5.13;1.40;;;22.10;76.20;;;;;;6048369;23;20014;-81
2022/05/16 18:40:41;;;;;;;3.47;1.17;;;21.90;76.90;;;;;;6072363;23;20181;-80
2022/05/16 18:51:40;;;;;;;4.45;1.27;;;21.30;78.60;;;;;;6133246;23;20008;-80
2022/05/16 18:54:16;;;;;;;4.15;1.73;;;21.20;78.60;;;;;;6106613;23;20013;-80
2022/05/16 19:00:36;;;;;;;4.30;1.67;;;21.20;78.70;;;;;;6132293;23;20056;-80
2022/05/16 19:03:03;;;;;;;3.65;1.23;;;21.20;78.70;;;;;;6106077;23;20021;-80
2022/05/16 19:05:30;;;;;;;3.08;1.27;;;21.10;78.90;;;;;;6132462;23;20508;-80
2022/05/16 19:07:57;;;;;;;4.30;1.73;;;21.00;79.20;;;;;;6106840;23;20132;-80
2022/05/16 19:10:24;;;;;;;3.90;1.48;;;21.00;79.50;;;;;;6107759;23;19994;-82
2022/05/16 19:12:55;;;;;;;4.65;1.50;;;21.00;79.60;;;;;;6134639;23;20016;-80
2022/05/16 19:15:24;;;;;;;5.93;1.52;;;20.90;79.90;;;;;;6108290;23;20009;-80
2022/05/16 19:17:52;;;;;;;4.55;1.60;;;20.80;80.40;;;;;;6109088;23;20290;-79
2022/05/16 19:20:24;;;;;;;4.85;1.65;;;20.70;80.80;;;;;;6133023;23;19998;-80
2022/05/16 19:22:53;;;;;;;4.38;1.60;;;20.70;81.00;;;;;;6109192;23;20021;-81
2022/05/16 19:25:22;;;;;;;3.38;1.30;;;20.50;81.50;;;;;;6108716;23;20192;-79
2022/05/16 19:33:29;;;;;;;4.95;1.95;;;20.20;82.50;;;;;;6137926;23;20006;-81
2022/05/16 19:35:57;;;;;;;3.45;1.55;;;20.20;83.00;;;;;;6137123;23;20200;-80
2022/05/16 19:38:42;;;;;;;3.58;1.65;;;20.10;83.00;;;;;;6134980;23;20181;-80
2022/05/16 19:41:07;;;;;;;4.60;1.65;;;20.10;83.20;;;;;;6133986;23;20061;-80
2022/05/16 19:43:46;;;;;;;5.93;1.70;;;20.00;83.50;;;;;;6133205;23;20323;-80
2022/05/16 19:46:12;;;;;;;6.97;1.50;;;20.00;83.80;;;;;;6138886;23;20030;-80
2022/05/16 19:48:41;;;;;;;6.40;1.80;;;19.90;84.10;;;;;;6138086;23;20013;-81
2022/05/16 19:51:11;;;;;;;4.30;1.70;;;19.90;84.20;;;;;;6113567;23;20001;-81
2022/05/16 19:53:40;;;;;;;5.60;1.77;;;19.90;84.30;;;;;;6113554;23;20060;-81
2022/05/16 19:59:54;;;;;;;;;;;19.70;84.80;;;;;;6164644;23;20058;-82
2022/05/16 20:03:16;;;;;;;5.40;1.67;;;19.60;85.40;;;;;;6110288;23;20090;-82
2022/05/16 20:05:51;;;;;;;3.80;1.45;;;19.70;85.50;;;;;;6111066;23;20338;-81
2022/05/16 20:08:20;;;;;;;4.63;1.70;;;19.60;85.60;;;;;;6112344;23;20251;-82
2022/05/16 20:10:58;;;;;;;3.28;1.40;;;19.60;85.50;;;;;;6113732;23;20009;-81
2022/05/16 20:14:36;;;;;;;3.60;1.50;;;19.60;85.70;;;;;;6142701;23;20143;-81
2022/05/16 20:17:02;;;;;;;4.40;1.52;;;19.50;86.00;;;;;;6169674;23;20002;-81
2022/05/16 20:19:28;;;;;;;5.85;2.00;;;19.50;86.20;;;;;;6152006;23;20021;-81
2022/05/16 20:25:25;;;;;;;4.45;1.55;;;19.50;86.70;;;;;;6162671;23;20024;-82
2022/05/16 20:27:59;;;;;;;5.78;1.60;;;19.40;86.90;;;;;;6161864;23;20263;-81
2022/05/16 20:30:27;;;;;;;4.25;1.98;;;19.40;87.90;;;;;;6163379;23;20013;-82
2022/05/16 20:32:56;;;;;;;5.30;1.92;;;19.30;87.70;;;;;;6164248;23;20001;-83
2022/05/16 20:35:30;;;;;;;;;;;19.30;88.10;;;;;;6162243;23;20009;-80
2022/05/16 20:37:56;;;;;;;5.55;1.95;;;19.30;88.30;;;;;;6138093;23;19901;-81